Time;durP1;ratioP1;P1;durP2;ratioP2;P2;SDS_P1;SDS_P2;PMS_P1;PMS_P2;Temp;Humidity;BMP_temperature;BMP_pressure;BME280_temperature;BME280_humidity;BME280_pressure;Samples;Min_cycle;Max_cycle;Signal;HPM_P1;HPM_P2
2023/10/21 00:01:13;;;;;;;116.93;41.07;;;6.20;99.90;;;;;;5178686;28;20694;-47
2023/10/21 00:03:47;;;;;;;143.10;46.63;;;6.20;99.90;;;;;;5179318;28;20262;-48
2023/10/21 00:06:17;;;;;;;145.90;45.30;;;6.20;99.90;;;;;;5182804;28;20450;-47
2023/10/21 00:08:48;;;;;;;109.33;40.03;;;6.30;99.90;;;;;;5181112;28;20788;-46
2023/10/21 00:11:19;;;;;;;114.53;41.83;;;6.30;99.90;;;;;;5180773;28;20183;-46
2023/10/21 00:13:50;;;;;;;137.50;44.80;;;6.30;99.90;;;;;;5186649;28;20431;-46
2023/10/21 00:16:21;;;;;;;124.47;41.03;;;6.30;99.90;;;;;;5183038;28;20186;-48
2023/10/21 00:18:52;;;;;;;132.67;42.90;;;6.30;99.90;;;;;;5184934;28;20239;-47
2023/10/21 00:21:29;;;;;;;141.77;43.80;;;6.40;99.90;;;;;;5183878;28;20187;-48
2023/10/21 00:24:00;;;;;;;129.03;42.10;;;6.30;99.90;;;;;;5180256;28;20203;-46
2023/10/21 00:26:30;;;;;;;155.03;45.90;;;6.40;99.90;;;;;;5180968;28;20454;-46
2023/10/21 00:29:01;;;;;;;123.43;40.30;;;6.40;99.90;;;;;;5167445;28;20700;-46
2023/10/21 00:31:50;;;;;;;118.67;42.97;;;6.40;99.90;;;;;;5181000;28;20192;-46
2023/10/21 00:34:20;;;;;;;146.30;43.37;;;6.40;99.90;;;;;;5192754;28;20539;-46
2023/10/21 00:36:51;;;;;;;109.67;40.00;;;6.40;99.90;;;;;;5182009;28;20430;-46
2023/10/21 00:39:25;;;;;;;119.53;43.37;;;6.40;99.90;;;;;;5177808;28;20521;-47
2023/10/21 00:41:56;;;;;;;123.53;41.90;;;6.40;99.90;;;;;;5181512;28;20214;-47
2023/10/21 00:44:30;;;;;;;124.87;42.37;;;6.40;99.90;;;;;;5185416;28;20431;-46
2023/10/21 00:47:01;;;;;;;120.37;40.10;;;6.40;99.90;;;;;;5165470;28;20187;-45
2023/10/21 00:49:32;;;;;;;139.00;45.03;;;6.40;99.90;;;;;;5181512;28;21062;-47
2023/10/21 00:52:04;;;;;;;134.97;42.43;;;6.40;99.90;;;;;;5184336;28;20442;-47
2023/10/21 00:54:37;;;;;;;121.73;42.30;;;6.40;99.90;;;;;;5181106;28;20612;-47
2023/10/21 00:57:09;;;;;;;134.83;44.20;;;6.40;99.90;;;;;;5184873;28;20493;-47
2023/10/21 00:59:44;;;;;;;123.90;42.93;;;6.50;99.90;;;;;;5184276;28;20463;-46
2023/10/21 01:02:15;;;;;;;114.07;43.57;;;6.50;99.90;;;;;;5182205;28;20450;-48
2023/10/21 01:04:49;;;;;;;147.00;45.83;;;6.50;99.90;;;;;;5180484;28;20450;-47
2023/10/21 01:07:24;;;;;;;141.70;44.77;;;6.50;99.90;;;;;;5179993;28;20450;-47
2023/10/21 01:09:58;;;;;;;209.97;53.13;;;6.50;99.90;;;;;;5186096;28;20449;-49
2023/10/21 01:12:31;;;;;;;137.53;45.37;;;6.50;99.90;;;;;;5168195;28;20446;-47
2023/10/21 01:15:02;;;;;;;144.30;45.17;;;6.50;99.90;;;;;;5158315;28;20516;-51
2023/10/21 01:17:43;;;;;;;163.40;49.30;;;6.50;99.90;;;;;;5182906;28;20450;-46
2023/10/21 01:23:41;;;;;;;143.63;46.13;;;6.50;99.90;;;;;;5180388;28;20468;-47
2023/10/21 01:26:15;;;;;;;175.63;47.83;;;6.50;99.90;;;;;;5181081;28;20455;-46
2023/10/21 01:28:46;;;;;;;124.43;43.93;;;6.60;99.90;;;;;;5180026;28;20463;-47
2023/10/21 01:31:16;;;;;;;137.50;43.97;;;6.60;99.90;;;;;;5162309;28;20479;-47
2023/10/21 01:33:47;;;;;;;130.93;43.53;;;6.50;99.90;;;;;;5180739;28;20207;-46
2023/10/21 01:36:18;;;;;;;136.60;45.40;;;6.50;99.90;;;;;;5184169;28;20198;-48
2023/10/21 01:38:49;;;;;;;140.57;45.90;;;6.50;99.90;;;;;;5168834;28;20226;-46
2023/10/21 01:41:19;;;;;;;145.80;45.10;;;6.60;99.90;;;;;;5179453;28;20251;-48
2023/10/21 01:43:50;;;;;;;175.93;46.47;;;6.60;99.90;;;;;;5182889;28;20184;-47
2023/10/21 01:46:21;;;;;;;136.87;46.17;;;6.60;99.90;;;;;;5182689;28;20792;-46
2023/10/21 01:49:00;;;;;;;164.90;51.10;;;6.60;99.90;;;;;;5181632;28;20219;-47
2023/10/21 01:51:31;;;;;;;194.63;53.10;;;6.60;99.90;;;;;;5182184;28;20199;-47
2023/10/21 01:54:02;;;;;;;147.93;47.00;;;6.60;99.90;;;;;;5182894;28;20497;-47
2023/10/21 01:56:32;;;;;;;180.97;49.17;;;6.60;99.90;;;;;;5182889;28;20439;-47
2023/10/21 01:59:03;;;;;;;160.17;49.27;;;6.60;99.90;;;;;;5181642;28;20479;-47
2023/10/21 02:01:34;;;;;;;160.30;47.53;;;6.60;99.90;;;;;;5182607;28;20219;-46
2023/10/21 02:04:05;;;;;;;152.07;46.13;;;6.60;99.90;;;;;;5181887;28;20195;-48
2023/10/21 02:06:36;;;;;;;161.17;49.60;;;6.70;99.90;;;;;;5181118;28;20814;-46
2023/10/21 02:09:06;;;;;;;167.83;48.87;;;6.60;99.90;;;;;;5173301;28;20235;-46
2023/10/21 02:11:37;;;;;;;156.53;45.97;;;6.60;99.90;;;;;;5180668;28;20223;-47
2023/10/21 02:14:08;;;;;;;230.67;54.80;;;6.70;99.90;;;;;;5178406;28;20181;-46
2023/10/21 02:16:39;;;;;;;153.23;47.70;;;6.70;99.90;;;;;;5184188;28;20656;-46
2023/10/21 02:19:12;;;;;;;207.40;51.70;;;6.70;99.90;;;;;;5181951;28;20507;-47
2023/10/21 02:21:46;;;;;;;159.17;47.80;;;6.70;99.90;;;;;;5197565;28;20184;-48
2023/10/21 02:24:17;;;;;;;163.50;47.07;;;6.70;99.90;;;;;;5175666;28;20479;-47
2023/10/21 02:26:49;;;;;;;156.50;48.97;;;6.70;99.90;;;;;;5178990;28;20530;-47
2023/10/21 02:29:20;;;;;;;210.87;55.07;;;6.70;99.90;;;;;;5179052;28;20551;-46
2023/10/21 02:31:51;;;;;;;195.37;51.77;;;6.70;99.90;;;;;;5181673;28;20476;-46
2023/10/21 02:34:21;;;;;;;220.50;59.80;;;6.70;99.90;;;;;;5180981;28;20184;-47
2023/10/21 02:36:55;;;;;;;198.00;51.20;;;6.70;99.90;;;;;;5180968;28;20679;-48
2023/10/21 02:39:26;;;;;;;189.40;50.00;;;6.70;99.90;;;;;;5178563;28;20286;-46
2023/10/21 02:41:57;;;;;;;162.93;50.80;;;6.80;99.90;;;;;;5183365;28;20534;-47
2023/10/21 02:44:28;;;;;;;155.33;48.13;;;6.70;99.90;;;;;;5183321;28;20188;-46
2023/10/21 02:46:59;;;;;;;208.07;54.27;;;6.80;99.90;;;;;;5176413;28;20216;-48
2023/10/21 02:49:30;;;;;;;157.73;45.70;;;6.80;99.90;;;;;;5179906;28;20521;-46
2023/10/21 02:52:01;;;;;;;132.37;42.53;;;6.80;99.90;;;;;;5179394;28;20177;-47
2023/10/21 02:54:31;;;;;;;189.33;51.50;;;6.90;99.90;;;;;;5178482;28;20932;-48
2023/10/21 02:57:02;;;;;;;140.97;46.60;;;6.80;99.90;;;;;;5183808;28;20180;-47
2023/10/21 02:59:35;;;;;;;175.20;49.63;;;6.80;99.90;;;;;;5182813;28;20200;-48
2023/10/21 03:02:06;;;;;;;179.27;46.60;;;6.80;99.90;;;;;;5176609;28;20196;-47
2023/10/21 03:04:37;;;;;;;178.50;50.70;;;6.80;99.90;;;;;;5179523;28;20818;-48
2023/10/21 03:07:07;;;;;;;216.87;51.63;;;6.90;99.90;;;;;;5179620;28;20185;-47
2023/10/21 03:09:38;;;;;;;169.83;51.50;;;6.80;99.90;;;;;;5180001;28;20223;-48
2023/10/21 03:12:08;;;;;;;221.87;55.37;;;6.80;99.90;;;;;;5181367;28;20569;-48
2023/10/21 03:14:40;;;;;;;174.97;51.23;;;6.80;99.90;;;;;;5186228;28;20633;-47
2023/10/21 03:17:13;;;;;;;198.07;51.50;;;6.80;99.90;;;;;;5182119;28;20181;-46
2023/10/21 03:19:43;;;;;;;225.30;50.43;;;6.80;99.90;;;;;;5185914;28;20963;-48
2023/10/21 03:22:14;;;;;;;228.53;55.80;;;6.80;99.90;;;;;;5185303;28;20452;-47
2023/10/21 03:24:45;;;;;;;145.73;45.30;;;6.80;99.90;;;;;;5176436;28;20252;-47
2023/10/21 03:27:15;;;;;;;191.83;52.50;;;6.80;99.90;;;;;;5185469;28;20192;-47
2023/10/21 03:29:46;;;;;;;204.67;51.07;;;6.80;99.90;;;;;;5186796;28;20303;-47
2023/10/21 03:32:17;;;;;;;208.17;54.07;;;6.80;99.90;;;;;;5185872;28;20184;-48
2023/10/21 03:34:53;;;;;;;213.70;53.50;;;6.80;99.90;;;;;;5184536;28;20184;-46
2023/10/21 03:37:24;;;;;;;240.10;57.23;;;6.80;99.90;;;;;;5177950;28;20431;-49
2023/10/21 03:39:55;;;;;;;152.30;48.40;;;6.80;99.90;;;;;;5182921;28;20444;-48
2023/10/21 03:42:26;;;;;;;160.53;49.80;;;6.80;99.90;;;;;;5186830;28;20577;-47
2023/10/21 03:44:56;;;;;;;202.90;51.73;;;6.80;99.90;;;;;;5185415;28;20180;-47
2023/10/21 03:47:27;;;;;;;199.87;54.60;;;6.80;99.90;;;;;;5183313;28;20186;-47
2023/10/21 03:49:58;;;;;;;216.60;50.30;;;6.80;99.90;;;;;;5186031;28;21009;-47
2023/10/21 03:52:29;;;;;;;245.43;55.67;;;6.90;99.90;;;;;;5187010;28;20176;-47
2023/10/21 03:54:59;;;;;;;204.97;52.73;;;6.80;99.90;;;;;;5183621;28;20187;-48
2023/10/21 03:57:30;;;;;;;158.10;48.03;;;6.80;99.90;;;;;;5181086;28;20551;-46
2023/10/21 04:00:01;;;;;;;228.13;52.37;;;7.00;99.90;;;;;;5185415;28;20184;-47
2023/10/21 04:02:32;;;;;;;265.53;57.00;;;6.90;99.90;;;;;;5180509;28;20188;-47
2023/10/21 04:05:06;;;;;;;248.83;54.20;;;6.80;99.90;;;;;;5184149;28;20642;-48
2023/10/21 04:07:37;;;;;;;210.40;52.80;;;6.90;99.90;;;;;;5179412;28;20215;-47
2023/10/21 04:10:08;;;;;;;180.87;50.70;;;6.80;99.90;;;;;;5179709;28;20435;-46
2023/10/21 04:12:42;;;;;;;155.67;47.50;;;6.80;99.90;;;;;;5179423;28;20187;-46
2023/10/21 04:15:18;;;;;;;228.80;54.90;;;6.80;99.90;;;;;;5178699;28;20826;-48
2023/10/21 04:17:49;;;;;;;272.23;56.10;;;6.80;99.90;;;;;;5183543;28;20443;-48
2023/10/21 04:20:22;;;;;;;261.57;59.30;;;6.80;99.90;;;;;;5179208;28;20454;-47
2023/10/21 04:22:53;;;;;;;198.17;51.70;;;6.80;99.90;;;;;;5174194;28;20191;-48
2023/10/21 04:25:23;;;;;;;229.10;52.60;;;6.90;99.90;;;;;;5165502;28;20857;-47
2023/10/21 04:27:56;;;;;;;245.77;56.40;;;6.80;99.90;;;;;;5179656;28;20196;-47
2023/10/21 04:30:26;;;;;;;213.30;51.57;;;6.90;99.90;;;;;;5181694;28;20612;-47
2023/10/21 04:32:57;;;;;;;243.03;54.00;;;6.90;99.90;;;;;;5163768;28;20485;-46
2023/10/21 04:35:28;;;;;;;222.67;51.47;;;6.90;99.90;;;;;;5177451;28;20212;-45
2023/10/21 04:38:05;;;;;;;209.50;53.23;;;6.90;99.90;;;;;;5180526;28;20196;-47
2023/10/21 04:40:36;;;;;;;184.07;50.67;;;6.90;99.90;;;;;;5184380;28;20192;-45
2023/10/21 04:43:10;;;;;;;180.27;51.73;;;6.90;99.90;;;;;;5176796;28;20947;-47
2023/10/21 04:45:41;;;;;;;223.27;53.10;;;6.90;99.90;;;;;;5180868;28;20454;-47
2023/10/21 04:48:12;;;;;;;248.57;54.73;;;6.90;99.90;;;;;;5183637;28;20475;-47
2023/10/21 04:50:43;;;;;;;279.43;57.90;;;6.90;99.90;;;;;;5181450;28;20443;-48
2023/10/21 04:53:13;;;;;;;198.17;49.67;;;6.90;99.90;;;;;;5183806;28;20443;-47
2023/10/21 04:55:44;;;;;;;233.90;53.70;;;6.90;99.90;;;;;;5176702;28;20197;-46
2023/10/21 04:58:15;;;;;;;192.93;49.10;;;7.00;99.90;;;;;;5182652;28;20684;-47
2023/10/21 05:00:45;;;;;;;220.47;51.90;;;6.90;99.90;;;;;;5182183;28;20211;-47
2023/10/21 05:03:16;;;;;;;281.37;60.60;;;6.90;99.90;;;;;;5180316;28;20192;-47
2023/10/21 05:05:48;;;;;;;211.03;50.53;;;6.90;99.90;;;;;;5179521;28;20184;-46
2023/10/21 05:08:18;;;;;;;223.87;54.73;;;6.90;99.90;;;;;;5182329;28;20466;-46
2023/10/21 05:10:49;;;;;;;201.90;50.80;;;6.90;99.90;;;;;;5181871;28;20435;-46
2023/10/21 05:13:20;;;;;;;254.47;56.67;;;6.90;99.90;;;;;;5179453;28;20439;-47
2023/10/21 05:15:51;;;;;;;217.93;54.30;;;6.90;99.90;;;;;;5170112;28;20184;-46
2023/10/21 05:18:21;;;;;;;181.20;49.33;;;6.90;99.90;;;;;;5173216;28;20213;-47
2023/10/21 05:20:55;;;;;;;256.63;57.87;;;6.80;99.90;;;;;;5177128;28;20447;-46
2023/10/21 05:23:26;;;;;;;224.50;51.57;;;6.90;99.90;;;;;;5180033;28;20594;-48
2023/10/21 05:25:58;;;;;;;176.57;50.70;;;6.90;99.90;;;;;;5181112;28;20447;-47
2023/10/21 05:28:29;;;;;;;235.40;56.20;;;6.90;99.90;;;;;;5178981;28;20212;-46
2023/10/21 05:31:01;;;;;;;233.70;54.40;;;6.80;99.90;;;;;;5181347;28;20805;-47
2023/10/21 05:33:32;;;;;;;218.03;52.33;;;6.90;99.90;;;;;;5179902;28;20424;-47
2023/10/21 05:36:03;;;;;;;193.57;50.30;;;6.90;99.90;;;;;;5175853;28;20487;-47
2023/10/21 05:38:33;;;;;;;202.20;52.33;;;7.00;99.90;;;;;;5178722;28;20288;-47
2023/10/21 05:41:07;;;;;;;126.97;42.20;;;7.00;99.90;;;;;;5179159;28;20443;-48
2023/10/21 05:43:38;;;;;;;242.47;51.30;;;7.00;99.90;;;;;;5177762;28;20213;-48
2023/10/21 05:46:08;;;;;;;207.63;49.80;;;7.00;99.90;;;;;;5176706;28;20439;-48
2023/10/21 05:48:39;;;;;;;126.80;43.67;;;7.00;99.90;;;;;;5180259;28;20239;-48
2023/10/21 05:51:10;;;;;;;162.90;44.43;;;7.00;99.90;;;;;;5178520;28;20691;-48
2023/10/21 05:53:41;;;;;;;217.93;51.80;;;7.00;99.90;;;;;;5162047;28;20188;-48
2023/10/21 05:56:12;;;;;;;226.93;52.97;;;7.00;99.90;;;;;;5179467;28;20192;-46
2023/10/21 05:58:46;;;;;;;141.90;43.87;;;7.00;99.90;;;;;;5193638;28;20498;-48
2023/10/21 06:01:17;;;;;;;135.90;44.77;;;7.00;99.90;;;;;;5178142;28;20460;-47
2023/10/21 06:03:48;;;;;;;137.73;42.23;;;7.00;99.90;;;;;;5179854;28;20441;-47
2023/10/21 06:06:19;;;;;;;235.77;50.97;;;7.00;99.90;;;;;;5177815;28;20557;-48
2023/10/21 06:08:49;;;;;;;165.70;46.63;;;7.00;99.90;;;;;;5179098;28;20226;-48
2023/10/21 06:11:20;;;;;;;261.83;52.30;;;7.00;99.90;;;;;;5177454;28;20924;-48
2023/10/21 06:13:54;;;;;;;171.90;47.00;;;7.10;99.90;;;;;;5177364;28;20200;-47
2023/10/21 06:16:25;;;;;;;178.20;47.70;;;7.20;99.90;;;;;;5175644;28;20188;-47
2023/10/21 06:18:56;;;;;;;203.53;50.07;;;7.10;99.90;;;;;;5180459;28;21097;-47
2023/10/21 06:21:26;;;;;;;190.40;47.33;;;7.10;99.90;;;;;;5179697;28;20450;-48
2023/10/21 06:23:57;;;;;;;173.50;45.70;;;7.10;99.90;;;;;;5180442;28;20188;-47
2023/10/21 06:26:28;;;;;;;135.63;42.43;;;7.20;99.90;;;;;;5178465;28;20183;-48
2023/10/21 06:28:59;;;;;;;197.90;49.20;;;7.20;99.90;;;;;;5176951;28;20239;-47
2023/10/21 06:31:31;;;;;;;150.07;43.47;;;7.20;99.90;;;;;;5165164;28;20188;-47
2023/10/21 06:34:02;;;;;;;182.60;47.53;;;7.20;99.90;;;;;;5182533;28;20443;-47
2023/10/21 06:36:33;;;;;;;154.57;45.20;;;7.20;99.90;;;;;;5182302;28;20842;-47
2023/10/21 06:39:05;;;;;;;150.97;42.93;;;7.20;99.90;;;;;;5180460;28;20227;-48
2023/10/21 06:41:36;;;;;;;147.03;43.60;;;7.20;99.90;;;;;;5176113;28;20478;-47
2023/10/21 06:44:08;;;;;;;160.47;47.20;;;7.20;99.90;;;;;;5179846;28;20442;-48
2023/10/21 06:46:38;;;;;;;152.03;44.77;;;7.20;99.90;;;;;;5181872;28;20180;-46
2023/10/21 06:49:09;;;;;;;176.73;47.10;;;7.30;99.90;;;;;;5177804;28;20854;-48
2023/10/21 06:51:40;;;;;;;180.23;47.93;;;7.30;99.90;;;;;;5180955;28;20224;-48
2023/10/21 06:54:11;;;;;;;186.03;47.93;;;7.30;99.90;;;;;;5184842;28;20207;-47
2023/10/21 06:56:42;;;;;;;133.30;42.90;;;7.40;99.90;;;;;;5184413;28;20184;-48
2023/10/21 06:59:14;;;;;;;167.77;45.27;;;7.40;99.90;;;;;;5187376;28;20195;-47
2023/10/21 07:01:46;;;;;;;246.57;53.73;;;7.40;99.90;;;;;;5184620;28;20435;-46
2023/10/21 07:04:18;;;;;;;157.70;46.83;;;7.40;99.90;;;;;;5185083;28;20454;-48
2023/10/21 07:06:48;;;;;;;169.63;47.10;;;7.40;99.90;;;;;;5184055;28;20481;-48
2023/10/21 07:09:19;;;;;;;201.20;50.60;;;7.50;99.90;;;;;;5184880;28;20459;-48
2023/10/21 07:11:50;;;;;;;141.03;44.10;;;7.50;99.90;;;;;;5186198;28;20184;-47
2023/10/21 07:14:21;;;;;;;151.87;45.27;;;7.50;99.90;;;;;;5182538;28;20187;-48
2023/10/21 07:16:51;;;;;;;147.67;46.40;;;7.50;99.90;;;;;;5172459;28;20182;-47
2023/10/21 07:19:22;;;;;;;180.47;48.00;;;7.60;99.90;;;;;;5170765;28;20204;-47
2023/10/21 07:21:53;;;;;;;169.23;51.00;;;7.60;99.90;;;;;;5172795;28;20637;-46
2023/10/21 07:24:24;;;;;;;139.47;47.63;;;7.60;99.90;;;;;;5181636;28;20442;-47
2023/10/21 07:26:55;;;;;;;129.60;46.70;;;7.60;99.90;;;;;;5185147;28;20591;-47
2023/10/21 07:29:25;;;;;;;177.27;51.30;;;7.70;99.90;;;;;;5185414;28;21018;-47
2023/10/21 07:31:56;;;;;;;136.93;49.70;;;7.70;99.90;;;;;;5184517;28;20596;-47
2023/10/21 07:34:27;;;;;;;135.50;44.13;;;7.80;99.90;;;;;;5184462;28;20637;-49
2023/10/21 07:36:58;;;;;;;127.83;45.30;;;7.90;99.90;;;;;;5182605;28;20191;-46
2023/10/21 07:39:29;;;;;;;135.33;45.83;;;7.90;99.90;;;;;;5173918;28;20205;-48
2023/10/21 07:41:59;;;;;;;140.60;48.73;;;7.90;99.90;;;;;;5180945;28;20208;-47
2023/10/21 07:44:30;;;;;;;141.63;44.57;;;7.90;99.90;;;;;;5184092;28;20431;-48
2023/10/21 07:47:02;;;;;;;121.40;42.77;;;8.00;99.90;;;;;;5179376;28;20189;-48
2023/10/21 07:49:33;;;;;;;157.87;49.97;;;8.00;99.90;;;;;;5184586;28;20215;-48
2023/10/21 07:52:14;;;;;;;145.73;47.40;;;8.00;99.90;;;;;;5179458;28;20442;-46
2023/10/21 07:54:45;;;;;;;134.83;45.27;;;8.10;99.90;;;;;;5177776;28;20453;-48
2023/10/21 07:57:15;;;;;;;140.90;44.60;;;8.10;99.90;;;;;;5179862;28;20437;-48
2023/10/21 07:59:46;;;;;;;124.70;42.30;;;8.10;99.90;;;;;;5179627;28;20451;-47
2023/10/21 08:02:17;;;;;;;137.60;46.77;;;8.10;99.90;;;;;;5184421;28;20775;-48
2023/10/21 08:04:48;;;;;;;124.63;44.67;;;8.20;99.90;;;;;;5166243;28;20184;-49
2023/10/21 08:07:19;;;;;;;126.93;44.83;;;8.30;99.90;;;;;;5181254;28;20180;-48
2023/10/21 08:09:51;;;;;;;111.33;43.63;;;8.50;99.90;;;;;;5185216;28;20462;-49
2023/10/21 08:12:21;;;;;;;103.10;41.63;;;8.60;99.90;;;;;;5194923;28;20474;-46
2023/10/21 08:14:52;;;;;;;96.90;41.30;;;8.80;99.90;;;;;;5185555;28;20463;-48
2023/10/21 08:17:23;;;;;;;102.33;40.37;;;8.80;99.90;;;;;;5184115;28;20192;-47
2023/10/21 08:19:53;;;;;;;120.53;45.60;;;8.70;99.90;;;;;;5176072;28;20185;-48
2023/10/21 08:22:28;;;;;;;107.23;42.43;;;8.70;99.90;;;;;;5167627;28;20289;-48
2023/10/21 08:24:59;;;;;;;109.50;42.50;;;8.80;99.90;;;;;;5164134;28;20194;-47
2023/10/21 08:27:30;;;;;;;93.20;40.80;;;8.90;99.90;;;;;;5168124;28;20446;-47
2023/10/21 08:30:01;;;;;;;131.37;44.23;;;9.00;99.90;;;;;;5179753;28;20828;-46
2023/10/21 08:32:35;;;;;;;85.07;39.70;;;9.10;99.90;;;;;;5179641;28;20544;-46
2023/10/21 08:35:06;;;;;;;103.23;40.03;;;9.20;99.90;;;;;;5179880;28;20434;-50
2023/10/21 08:37:42;;;;;;;87.30;37.70;;;9.40;99.90;;;;;;5184552;28;20423;-46
2023/10/21 08:40:13;;;;;;;76.33;33.80;;;9.60;99.90;;;;;;5181441;28;20539;-47
2023/10/21 08:42:44;;;;;;;63.30;31.37;;;9.70;99.90;;;;;;5184184;28;20506;-46
2023/10/21 08:45:16;;;;;;;61.40;32.60;;;10.00;99.90;;;;;;5178918;28;20255;-47
2023/10/21 08:47:51;;;;;;;61.50;32.27;;;10.00;99.90;;;;;;5177077;28;20949;-47
2023/10/21 08:50:24;;;;;;;60.33;30.97;;;10.00;99.90;;;;;;5179929;28;20520;-47
2023/10/21 08:52:57;;;;;;;59.13;31.17;;;10.00;99.90;;;;;;5166257;28;20860;-47
2023/10/21 08:55:27;;;;;;;57.10;30.60;;;10.00;99.90;;;;;;5179179;28;20546;-49
2023/10/21 08:57:58;;;;;;;51.90;28.70;;;10.20;99.90;;;;;;5187706;28;20482;-49
2023/10/21 09:00:33;;;;;;;57.63;31.67;;;10.30;99.90;;;;;;5197667;28;20243;-49
2023/10/21 09:03:04;;;;;;;69.33;33.20;;;10.40;99.90;;;;;;5182282;28;20182;-47
2023/10/21 09:06:03;;;;;;;50.17;26.57;;;10.60;99.90;;;;;;5184742;28;20562;-48
2023/10/21 09:08:36;;;;;;;39.17;23.33;;;10.70;99.90;;;;;;5185891;28;20208;-49
2023/10/21 09:11:10;;;;;;;39.37;23.50;;;10.80;99.90;;;;;;5184159;28;21003;-49
2023/10/21 09:13:41;;;;;;;42.27;25.10;;;10.80;99.90;;;;;;5171310;28;20454;-49
2023/10/21 09:16:21;;;;;;;34.23;24.97;;;10.70;99.90;;;;;;5181838;28;20419;-48
2023/10/21 09:19:10;;;;;;;34.80;22.37;;;10.90;99.90;;;;;;5182143;28;20865;-47
2023/10/21 09:21:45;;;;;;;41.80;24.80;;;11.00;99.90;;;;;;5185105;28;20438;-47
2023/10/21 09:24:23;;;;;;;38.93;24.60;;;11.10;99.90;;;;;;5182634;28;20437;-51
2023/10/21 09:26:54;;;;;;;41.40;23.63;;;11.20;99.90;;;;;;5178231;28;20916;-50
2023/10/21 09:29:24;;;;;;;38.10;23.17;;;11.20;99.90;;;;;;5177760;28;20551;-49
2023/10/21 09:31:56;;;;;;;36.20;22.70;;;11.30;99.90;;;;;;5181328;28;20212;-48
2023/10/21 09:34:32;;;;;;;32.77;20.87;;;11.40;99.90;;;;;;5179629;28;20650;-48
2023/10/21 09:37:06;;;;;;;29.53;22.10;;;11.40;99.90;;;;;;5199129;28;20422;-50
2023/10/21 09:39:37;;;;;;;34.70;22.73;;;11.50;99.90;;;;;;5184184;28;20978;-51
2023/10/21 09:42:08;;;;;;;29.43;18.27;;;11.80;99.90;;;;;;5179054;28;20435;-48
2023/10/21 09:44:41;;;;;;;28.57;18.80;;;11.70;99.90;;;;;;5196409;28;20426;-48
2023/10/21 09:47:15;;;;;;;28.17;18.93;;;11.70;99.90;;;;;;5180486;28;20740;-48
2023/10/21 09:49:46;;;;;;;20.93;17.73;;;11.90;99.90;;;;;;5183465;28;20784;-49
2023/10/21 09:52:23;;;;;;;18.80;14.83;;;12.10;99.90;;;;;;5182071;28;20546;-49
2023/10/21 09:55:10;;;;;;;25.03;15.60;;;12.20;99.90;;;;;;5183888;28;20785;-49
2023/10/21 09:57:42;;;;;;;24.07;14.50;;;12.30;99.90;;;;;;5184753;28;20858;-49
2023/10/21 10:00:17;;;;;;;17.93;14.07;;;12.50;99.90;;;;;;5182800;28;20904;-49
2023/10/21 10:02:50;;;;;;;13.73;12.30;;;12.70;99.90;;;;;;5187282;28;20442;-49
2023/10/21 10:05:21;;;;;;;16.03;12.60;;;13.00;99.90;;;;;;5182127;28;20443;-49
2023/10/21 10:07:52;;;;;;;16.30;11.40;;;13.20;99.90;;;;;;5184951;28;20482;-48
2023/10/21 10:10:25;;;;;;;12.60;9.10;;;13.20;99.90;;;;;;5182675;28;20439;-48
2023/10/21 10:13:06;;;;;;;15.33;11.57;;;13.20;99.90;;;;;;5182139;28;20179;-49
2023/10/21 10:15:38;;;;;;;12.90;10.27;;;13.10;99.90;;;;;;5187025;28;20493;-48
2023/10/21 10:18:19;;;;;;;11.27;10.07;;;13.20;99.90;;;;;;5179743;28;20459;-49
2023/10/21 10:20:52;;;;;;;10.87;9.67;;;13.40;99.90;;;;;;5179945;28;20443;-50
2023/10/21 10:23:26;;;;;;;11.13;9.80;;;13.70;99.90;;;;;;5180731;28;21108;-49
2023/10/21 10:25:57;;;;;;;10.40;8.60;;;13.80;99.90;;;;;;5179202;28;20505;-51
2023/10/21 10:28:28;;;;;;;14.43;10.90;;;13.90;99.90;;;;;;5177869;28;21020;-50
2023/10/21 10:31:00;;;;;;;10.23;8.30;;;14.10;99.90;;;;;;5182590;28;20481;-49
2023/10/21 10:33:31;;;;;;;9.60;8.70;;;13.90;99.90;;;;;;5170954;28;20525;-51
2023/10/21 10:36:12;;;;;;;10.97;8.43;;;13.90;99.90;;;;;;5152518;28;20488;-49
2023/10/21 10:38:47;;;;;;;13.70;8.60;;;14.00;99.90;;;;;;5179215;28;20200;-50
2023/10/21 10:41:23;;;;;;;11.17;9.53;;;14.00;99.90;;;;;;5179407;28;20458;-49
2023/10/21 10:44:01;;;;;;;10.47;8.33;;;14.30;99.90;;;;;;5177653;28;20435;-51
2023/10/21 10:46:36;;;;;;;14.43;8.23;;;14.60;99.90;;;;;;5172131;28;20513;-51
2023/10/21 10:49:08;;;;;;;9.30;7.80;;;14.80;99.90;;;;;;5190084;28;20490;-51
2023/10/21 10:51:43;;;;;;;11.13;8.80;;;15.20;99.90;;;;;;5185333;28;20432;-51
2023/10/21 10:54:20;;;;;;;15.00;8.97;;;15.40;99.90;;;;;;5182027;28;20539;-51
2023/10/21 10:56:51;;;;;;;10.83;8.63;;;15.60;99.90;;;;;;5177128;28;20439;-51
2023/10/21 10:59:28;;;;;;;19.73;10.00;;;15.90;99.90;;;;;;5174173;28;20993;-52
2023/10/21 11:02:03;;;;;;;20.50;11.87;;;15.90;99.90;;;;;;5181101;28;20312;-53
2023/10/21 11:04:34;;;;;;;13.53;7.53;;;16.20;99.90;;;;;;5183037;28;20945;-53
2023/10/21 11:07:05;;;;;;;7.53;5.97;;;16.30;99.90;;;;;;5189108;28;20468;-52
2023/10/21 11:09:36;;;;;;;11.77;5.70;;;16.40;99.90;;;;;;5181036;28;20222;-51
2023/10/21 11:12:07;;;;;;;6.00;4.33;;;16.30;99.90;;;;;;5187115;28;20446;-51
2023/10/21 11:14:38;;;;;;;5.10;4.60;;;16.30;99.90;;;;;;5189435;28;21352;-50
2023/10/21 11:17:10;;;;;;;5.40;4.77;;;16.50;99.90;;;;;;5179896;28;20180;-49
2023/10/21 11:19:41;;;;;;;3.50;3.20;;;16.70;99.90;;;;;;5183056;28;20470;-48
2023/10/21 11:22:25;;;;;;;3.80;3.20;;;16.70;99.90;;;;;;5189958;28;20446;-49
2023/10/21 11:24:56;;;;;;;2.37;2.27;;;16.80;99.90;;;;;;5189758;28;20900;-49
2023/10/21 11:27:27;;;;;;;3.27;2.00;;;16.80;99.90;;;;;;5186847;28;20513;-50
2023/10/21 11:29:59;;;;;;;1.97;1.87;;;16.90;99.90;;;;;;5188849;28;21366;-51
2023/10/21 11:32:31;;;;;;;1.63;1.63;;;16.90;99.90;;;;;;5189042;28;20749;-49
2023/10/21 11:35:03;;;;;;;4.13;2.00;;;17.10;99.90;;;;;;5185040;28;20434;-51
2023/10/21 11:37:36;;;;;;;1.20;1.13;;;17.20;99.90;;;;;;5180952;28;20458;-50
2023/10/21 11:40:10;;;;;;;2.20;1.60;;;17.20;99.90;;;;;;5184569;28;20434;-47
2023/10/21 11:42:43;;;;;;;1.30;1.30;;;17.20;99.90;;;;;;5188929;28;20422;-48
2023/10/21 11:45:25;;;;;;;1.00;1.00;;;17.00;99.90;;;;;;5191074;28;20958;-51
2023/10/21 11:48:00;;;;;;;1.27;1.20;;;16.90;99.90;;;;;;5183728;28;20467;-50
2023/10/21 11:50:34;;;;;;;1.57;1.57;;;17.00;99.90;;;;;;5189472;28;20462;-50
2023/10/21 11:53:08;;;;;;;1.47;1.37;;;17.00;99.90;;;;;;5189385;28;20443;-50
2023/10/21 12:22:58;;;;;;;2.00;0.60;;;17.50;99.90;;;;;;5197157;28;20447;-49
2023/10/21 12:26:16;;;;;;;1.03;1.03;;;17.30;99.90;;;;;;5190680;28;20564;-51
2023/10/21 12:36:54;;;;;;;1.30;1.23;;;17.10;99.90;;;;;;5193225;28;20479;-49
2023/10/21 12:39:36;;;;;;;1.37;1.30;;;16.90;99.90;;;;;;5188917;28;20463;-52
2023/10/21 12:42:45;;;;;;;1.83;0.70;;;16.80;99.90;;;;;;5186636;28;20446;-52
2023/10/21 12:45:11;;;;;;;1.37;1.27;;;16.90;99.90;;;;;;5188286;28;20490;-52
2023/10/21 12:47:43;;;;;;;2.07;1.27;;;17.00;99.90;;;;;;5171766;28;20822;-50
2023/10/21 12:50:16;;;;;;;0.90;0.90;;;17.00;99.90;;;;;;5168543;28;20467;-49
2023/10/21 12:52:47;;;;;;;1.73;1.63;;;17.10;99.90;;;;;;5191608;28;20431;-50
2023/10/21 12:55:23;;;;;;;1.43;0.93;;;17.30;99.90;;;;;;5188389;28;20539;-51
2023/10/21 12:57:53;;;;;;;3.60;1.43;;;17.20;99.90;;;;;;5186309;28;20463;-51
2023/10/21 13:00:25;;;;;;;1.50;1.40;;;17.20;99.90;;;;;;5190513;28;20497;-50
2023/10/21 13:02:56;;;;;;;2.00;1.83;;;17.10;99.90;;;;;;5189279;28;20618;-50
2023/10/21 13:05:27;;;;;;;2.67;1.30;;;17.10;99.90;;;;;;5190405;28;20436;-51
2023/10/21 13:07:58;;;;;;;2.10;1.80;;;17.10;99.90;;;;;;5187192;28;20448;-50
2023/10/21 13:10:31;;;;;;;1.70;1.60;;;17.10;99.90;;;;;;5184595;28;20262;-52
2023/10/21 13:13:04;;;;;;;1.53;1.43;;;17.30;99.90;;;;;;5188202;28;20693;-50
2023/10/21 13:15:36;;;;;;;1.00;0.90;;;17.60;99.90;;;;;;5188019;28;20439;-51
2023/10/21 13:18:07;;;;;;;1.43;1.43;;;17.80;99.90;;;;;;5171212;28;20466;-52
2023/10/21 13:20:39;;;;;;;1.93;1.83;;;18.00;99.90;;;;;;5188508;28;20431;-51
2023/10/21 13:23:09;;;;;;;1.77;1.03;;;18.00;99.90;;;;;;5190535;28;20189;-51
2023/10/21 13:25:40;;;;;;;3.13;0.80;;;17.90;99.90;;;;;;5184538;28;20438;-51
2023/10/21 13:28:11;;;;;;;0.80;0.80;;;17.80;99.90;;;;;;5186568;28;20196;-49
2023/10/21 13:30:43;;;;;;;0.60;0.57;;;17.90;99.90;;;;;;5185305;28;20276;-51
2023/10/21 13:33:14;;;;;;;0.80;0.80;;;18.20;99.90;;;;;;5179417;28;20791;-49
2023/10/21 13:35:45;;;;;;;1.60;1.50;;;18.20;99.90;;;;;;5184997;28;20528;-50